Time;durP1;ratioP1;P1;durP2;ratioP2;P2;SDS_P1;SDS_P2;PMS_P1;PMS_P2;Temp;Humidity;BMP_temperature;BMP_pressure;BME280_temperature;BME280_humidity;BME280_pressure;Samples;Min_cycle;Max_cycle;Signal;HPM_P1;HPM_P2
2023/09/19 00:02:17;;;;;;;;;;;25.90;99.90;;;;;;5063194;22;19931;-58
2023/09/19 00:04:43;;;;;;;;;;;26.00;99.90;;;;;;5055650;28;19995;-58
2023/09/19 00:07:09;;;;;;;;;;;26.00;99.90;;;;;;5055619;28;19950;-58
2023/09/19 00:09:37;;;;;;;;;;;26.00;99.90;;;;;;5055489;28;19905;-58
2023/09/19 00:12:04;;;;;;;;;;;26.00;99.90;;;;;;5055600;28;19912;-58
2023/09/19 00:14:33;;;;;;;;;;;26.00;99.90;;;;;;5055469;28;19917;-58
2023/09/19 00:17:00;;;;;;;;;;;26.00;99.90;;;;;;5037484;28;19905;-58
2023/09/19 00:19:26;;;;;;;;;;;26.00;99.90;;;;;;5055748;28;20015;-58
2023/09/19 00:21:53;;;;;;;;;;;26.00;99.90;;;;;;5055228;28;19908;-58
2023/09/19 00:24:18;;;;;;;;;;;26.00;99.90;;;;;;5054338;28;19908;-58
2023/09/19 00:26:46;;;;;;;;;;;26.10;99.90;;;;;;5055213;28;19904;-58
2023/09/19 00:29:16;;;;;;;;;;;26.00;99.90;;;;;;5055142;28;19905;-59
2023/09/19 00:31:45;;;;;;;;;;;26.10;99.90;;;;;;5055171;28;19932;-58
2023/09/19 00:34:10;;;;;;;;;;;26.00;99.90;;;;;;5054837;28;19917;-57
2023/09/19 00:36:38;;;;;;;;;;;26.00;99.90;;;;;;5055114;28;19911;-58
2023/09/19 00:39:05;;;;;;;;;;;26.00;99.90;;;;;;5055131;28;20293;-58
2023/09/19 00:41:35;;;;;;;;;;;26.00;99.90;;;;;;5054806;28;19904;-57
2023/09/19 00:44:02;;;;;;;;;;;26.00;99.90;;;;;;5054928;28;19911;-58
2023/09/19 00:46:28;;;;;;;;;;;25.90;99.90;;;;;;5054913;28;19932;-58
2023/09/19 00:48:54;;;;;;;;;;;25.90;99.90;;;;;;5054816;28;19954;-58
2023/09/19 00:51:22;;;;;;;;;;;25.90;99.90;;;;;;5046223;28;20934;-58
2023/09/19 00:53:48;;;;;;;;;;;25.80;99.90;;;;;;5033699;28;19942;-59
2023/09/19 00:56:14;;;;;;;;;;;25.80;99.90;;;;;;5032529;28;19951;-58
2023/09/19 00:58:40;;;;;;;;;;;25.80;99.90;;;;;;5032729;28;19909;-58
2023/09/19 01:01:06;;;;;;;;;;;25.80;99.90;;;;;;5032987;28;20397;-58
2023/09/19 01:03:36;;;;;;;;;;;25.80;99.90;;;;;;5014794;28;19941;-58
2023/09/19 01:06:02;;;;;;;;;;;25.80;99.90;;;;;;5032499;28;19912;-58
2023/09/19 01:08:29;;;;;;;;;;;25.80;99.90;;;;;;5032958;28;19905;-58
2023/09/19 01:11:02;;;;;;;;;;;25.80;99.90;;;;;;5034451;28;19905;-58
2023/09/19 01:13:28;;;;;;;;;;;25.70;99.90;;;;;;5034610;28;19970;-58
2023/09/19 01:15:54;;;;;;;;;;;25.70;99.90;;;;;;5016537;28;20426;-58
2023/09/19 01:18:26;;;;;;;;;;;25.70;99.90;;;;;;5034319;28;19905;-58
2023/09/19 01:21:04;;;;;;;;;;;25.60;99.90;;;;;;5034311;28;19916;-58
2023/09/19 01:23:39;;;;;;;;;;;25.60;99.90;;;;;;5034407;28;19950;-58
2023/09/19 01:26:06;;;;;;;;;;;25.50;99.90;;;;;;5034290;28;19905;-58
2023/09/19 01:28:43;;;;;;;;;;;25.50;99.90;;;;;;5034252;28;19940;-58
2023/09/19 01:31:10;;;;;;;;;;;25.50;99.90;;;;;;5016381;28;19912;-58
2023/09/19 01:33:59;;;;;;;;;;;25.50;99.90;;;;;;5033968;28;19917;-58
2023/09/19 01:36:29;;;;;;;;;;;25.40;99.90;;;;;;5033784;28;19905;-58
2023/09/19 01:38:55;;;;;;;;;;;25.40;99.90;;;;;;5033930;28;19947;-58
2023/09/19 01:41:30;;;;;;;;;;;25.40;99.90;;;;;;5033951;28;19905;-57
2023/09/19 01:43:56;;;;;;;;;;;25.40;99.90;;;;;;5033828;28;20359;-58
2023/09/19 01:46:30;;;;;;;;;;;25.30;99.90;;;;;;5033700;28;19944;-58
2023/09/19 01:48:56;;;;;;;;;;;25.30;99.90;;;;;;5033626;28;19944;-58
2023/09/19 01:51:27;;;;;;;;;;;25.30;99.90;;;;;;5033717;28;19906;-58
2023/09/19 01:53:57;;;;;;;;;;;25.30;99.90;;;;;;5033459;28;19978;-58
2023/09/19 01:56:29;;;;;;;;;;;25.30;99.90;;;;;;5033809;28;19951;-58
2023/09/19 01:58:57;;;;;;;;;;;25.20;99.90;;;;;;5033620;28;19944;-58
2023/09/19 02:01:24;;;;;;;;;;;25.30;99.90;;;;;;5033893;28;20387;-58
2023/09/19 02:03:50;;;;;;;;;;;25.20;99.90;;;;;;5033425;28;19960;-58
2023/09/19 02:06:17;;;;;;;;;;;25.20;99.90;;;;;;5033331;28;19905;-58
2023/09/19 02:08:43;;;;;;;;;;;25.20;99.90;;;;;;5033333;28;19991;-58
2023/09/19 02:11:08;;;;;;;;;;;25.30;99.90;;;;;;5033383;28;19996;-58
2023/09/19 02:13:34;;;;;;;;;;;25.30;99.90;;;;;;5033246;28;19967;-58
2023/09/19 02:16:00;;;;;;;;;;;25.30;99.90;;;;;;5033368;28;19951;-58
2023/09/19 02:18:28;;;;;;;;;;;25.30;99.90;;;;;;5033183;28;19905;-58
2023/09/19 02:20:54;;;;;;;;;;;25.30;99.90;;;;;;5033056;28;20261;-58
2023/09/19 02:23:20;;;;;;;;;;;25.30;99.90;;;;;;5033044;28;19905;-58
2023/09/19 02:25:52;;;;;;;;;;;25.20;99.90;;;;;;5033062;28;19905;-58
2023/09/19 02:28:18;;;;;;;;;;;25.20;99.90;;;;;;5033009;28;19927;-58
2023/09/19 02:30:47;;;;;;;;;;;25.20;99.90;;;;;;5032935;28;19905;-59
2023/09/19 02:33:13;;;;;;;;;;;25.10;99.90;;;;;;5032678;28;19948;-58
2023/09/19 02:35:38;;;;;;;;;;;25.10;99.90;;;;;;5032791;28;19919;-58
2023/09/19 02:38:06;;;;;;;;;;;25.10;99.90;;;;;;5032989;28;19905;-58
2023/09/19 02:40:35;;;;;;;;;;;25.00;99.90;;;;;;5032882;28;19905;-58
2023/09/19 02:43:01;;;;;;;;;;;25.00;99.90;;;;;;5033019;28;19905;-59
2023/09/19 02:45:27;;;;;;;;;;;25.00;99.90;;;;;;5032644;28;19909;-58
2023/09/19 02:47:53;;;;;;;;;;;25.00;99.90;;;;;;5032262;28;20283;-58
2023/09/19 02:50:19;;;;;;;;;;;24.90;99.90;;;;;;5032848;28;19943;-58
2023/09/19 02:52:48;;;;;;;;;;;25.00;99.90;;;;;;5032674;28;19915;-58
2023/09/19 02:55:19;;;;;;;;;;;24.90;99.90;;;;;;5032543;28;19924;-59
2023/09/19 02:57:51;;;;;;;;;;;25.00;99.90;;;;;;5032649;28;19947;-58
2023/09/19 03:02:51;;;;;;;;;;;25.00;99.90;;;;;;5069601;28;19921;-51
2023/09/19 03:05:17;;;;;;;;;;;24.90;99.90;;;;;;5072612;28;19912;-51
2023/09/19 03:07:45;;;;;;;;;;;24.90;99.90;;;;;;5072466;28;19991;-51
2023/09/19 03:10:11;;;;;;;;;;;24.90;99.90;;;;;;5072406;28;19904;-51
2023/09/19 03:12:37;;;;;;;;;;;24.90;99.90;;;;;;5072625;28;20022;-51
2023/09/19 03:15:04;;;;;;;;;;;24.90;99.90;;;;;;5072444;28;20374;-51
2023/09/19 03:17:30;;;;;;;;;;;24.90;99.90;;;;;;5072345;28;19904;-51
2023/09/19 03:19:57;;;;;;;;;;;24.90;99.90;;;;;;5072329;28;19912;-51
2023/09/19 03:22:22;;;;;;;;;;;24.90;99.90;;;;;;5072642;28;20374;-51
2023/09/19 03:24:48;;;;;;;;;;;24.80;99.90;;;;;;5072405;28;19927;-52
2023/09/19 03:27:16;;;;;;;;;;;24.90;99.90;;;;;;5072246;28;19937;-51
2023/09/19 03:29:42;;;;;;;;;;;24.80;99.90;;;;;;5072356;28;19908;-52
2023/09/19 03:32:10;;;;;;;;;;;24.80;99.90;;;;;;5072402;28;19985;-51
2023/09/19 03:34:37;;;;;;;;;;;24.80;99.90;;;;;;5072245;28;20005;-52
2023/09/19 03:37:03;;;;;;;;;;;24.80;99.90;;;;;;5072201;28;20506;-51
2023/09/19 03:39:29;;;;;;;;;;;24.70;99.90;;;;;;5072139;28;19909;-51
2023/09/19 03:41:54;;;;;;;;;;;24.70;99.90;;;;;;5072013;28;20301;-52
2023/09/19 03:44:20;;;;;;;;;;;24.70;99.90;;;;;;5072033;28;19905;-51
2023/09/19 03:46:46;;;;;;;;;;;24.70;99.90;;;;;;5072125;28;19904;-51
2023/09/19 03:49:12;;;;;;;;;;;24.70;99.90;;;;;;5072335;28;19911;-51
2023/09/19 03:51:37;;;;;;;;;;;24.70;99.90;;;;;;5049196;28;19909;-51
2023/09/19 03:54:04;;;;;;;;;;;24.70;99.90;;;;;;5050764;28;19959;-52
2023/09/19 03:56:29;;;;;;;;;;;24.70;99.90;;;;;;5049746;28;19932;-52
2023/09/19 03:58:55;;;;;;;;;;;24.70;99.90;;;;;;5051188;28;20269;-51
2023/09/19 04:01:21;;;;;;;;;;;24.70;99.90;;;;;;5054018;28;19924;-51
2023/09/19 04:03:47;;;;;;;;;;;24.70;99.90;;;;;;5053407;28;19912;-52
2023/09/19 04:06:13;;;;;;;;;;;24.70;99.90;;;;;;5053506;28;19908;-52
2023/09/19 04:08:39;;;;;;;;;;;24.60;99.90;;;;;;5054093;28;19995;-51
2023/09/19 04:11:05;;;;;;;;;;;24.60;99.90;;;;;;5055521;28;19992;-51
2023/09/19 04:13:30;;;;;;;;;;;24.60;99.90;;;;;;5055377;28;19913;-52
2023/09/19 04:15:56;;;;;;;;;;;24.60;99.90;;;;;;5055321;28;19909;-51
2023/09/19 04:18:23;;;;;;;;;;;24.60;99.90;;;;;;5055295;28;19905;-52
2023/09/19 04:20:52;;;;;;;;;;;24.50;99.90;;;;;;5055248;28;19912;-51
2023/09/19 04:23:21;;;;;;;;;;;24.50;99.90;;;;;;5055172;28;19966;-52
2023/09/19 04:25:46;;;;;;;;;;;24.50;99.90;;;;;;5055109;28;19905;-51
2023/09/19 04:28:12;;;;;;;;;;;24.50;99.90;;;;;;5055137;28;19911;-52
2023/09/19 04:30:40;;;;;;;;;;;24.50;99.90;;;;;;5055299;28;19904;-52
2023/09/19 04:33:06;;;;;;;;;;;24.50;99.90;;;;;;5054986;28;19919;-52
2023/09/19 04:35:32;;;;;;;;;;;24.50;99.90;;;;;;5055001;28;19913;-51
2023/09/19 04:37:58;;;;;;;;;;;24.50;99.90;;;;;;5054954;28;19940;-51
2023/09/19 04:40:24;;;;;;;;;;;24.50;99.90;;;;;;5054902;28;19916;-51
2023/09/19 04:42:56;;;;;;;;;;;24.60;99.90;;;;;;5055020;28;19904;-52
2023/09/19 04:45:22;;;;;;;;;;;24.60;99.90;;;;;;5054693;28;19951;-52
2023/09/19 04:47:48;;;;;;;;;;;24.70;99.90;;;;;;5054802;28;19905;-51
2023/09/19 04:50:13;;;;;;;;;;;24.70;99.90;;;;;;5054878;28;19905;-51
2023/09/19 04:52:44;;;;;;;;;;;24.70;99.90;;;;;;5054697;28;19959;-51
2023/09/19 04:55:19;;;;;;;;;;;24.70;99.90;;;;;;5054743;28;19913;-52
2023/09/19 04:57:45;;;;;;;;;;;24.70;99.90;;;;;;5054610;28;19916;-51
2023/09/19 05:00:14;;;;;;;;;;;24.70;99.90;;;;;;5054824;28;19912;-51
2023/09/19 05:02:42;;;;;;;;;;;24.80;99.90;;;;;;5054539;28;19944;-51
2023/09/19 05:05:08;;;;;;;;;;;24.80;99.90;;;;;;5054629;28;20278;-52
2023/09/19 05:07:34;;;;;;;;;;;24.80;99.90;;;;;;5036661;28;20410;-51
2023/09/19 05:10:00;;;;;;;;;;;24.80;99.90;;;;;;5053934;28;19905;-52
2023/09/19 05:12:29;;;;;;;;;;;24.80;99.90;;;;;;5053064;28;19912;-52
2023/09/19 05:14:55;;;;;;;;;;;24.80;99.90;;;;;;5054116;28;19912;-52
2023/09/19 05:17:21;;;;;;;;;;;24.80;99.90;;;;;;5054130;28;20290;-52
2023/09/19 05:19:46;;;;;;;;;;;24.80;99.90;;;;;;5036554;28;19905;-52
2023/09/19 05:22:12;;;;;;;;;;;24.80;99.90;;;;;;5053080;28;19912;-52
2023/09/19 05:24:39;;;;;;;;;;;24.80;99.90;;;;;;5053888;28;19905;-52
2023/09/19 05:27:07;;;;;;;;;;;24.80;99.90;;;;;;5053991;28;20362;-52
2023/09/19 05:29:33;;;;;;;;;;;24.80;99.90;;;;;;5053948;28;19904;-52
2023/09/19 05:31:59;;;;;;;;;;;24.80;99.90;;;;;;5053888;28;19904;-52
2023/09/19 05:34:28;;;;;;;;;;;24.80;99.90;;;;;;5053826;28;20296;-51
2023/09/19 05:36:54;;;;;;;;;;;24.80;99.90;;;;;;5053860;28;19905;-51
2023/09/19 05:39:20;;;;;;;;;;;24.80;99.90;;;;;;5053887;28;19912;-51
2023/09/19 05:41:47;;;;;;;;;;;24.80;99.90;;;;;;5053771;28;20366;-52
2023/09/19 05:44:14;;;;;;;;;;;24.80;99.90;;;;;;5053979;28;19904;-52
2023/09/19 05:46:39;;;;;;;;;;;24.80;99.90;;;;;;5053612;28;19912;-51
2023/09/19 05:49:05;;;;;;;;;;;24.80;99.90;;;;;;5053614;28;19909;-51
2023/09/19 05:51:31;;;;;;;;;;;24.80;99.90;;;;;;5053412;28;19911;-51
2023/09/19 05:53:57;;;;;;;;;;;24.80;99.90;;;;;;5053414;28;20019;-52
2023/09/19 05:56:23;;;;;;;;;;;24.80;99.90;;;;;;5053498;28;19912;-51
2023/09/19 05:58:49;;;;;;;;;;;24.80;99.90;;;;;;5053324;28;19989;-52
2023/09/19 06:01:15;;;;;;;;;;;24.80;99.90;;;;;;5035582;28;19924;-51
2023/09/19 06:03:40;;;;;;;;;;;24.80;99.90;;;;;;5053327;28;20008;-51
2023/09/19 06:06:06;;;;;;;;;;;24.80;99.90;;;;;;5053261;28;19951;-51
2023/09/19 06:08:35;;;;;;;;;;;24.80;99.90;;;;;;5053122;28;20263;-51
2023/09/19 06:11:00;;;;;;;;;;;24.80;99.90;;;;;;5053217;28;19908;-52
2023/09/19 06:13:29;;;;;;;;;;;24.70;99.90;;;;;;5053064;28;19909;-52
2023/09/19 06:15:56;;;;;;;;;;;24.80;99.90;;;;;;5053109;28;19962;-51
2023/09/19 06:18:25;;;;;;;;;;;24.80;99.90;;;;;;5053124;28;19951;-51
2023/09/19 06:20:51;;;;;;;;;;;24.80;99.90;;;;;;5052666;28;20003;-51
2023/09/19 06:23:17;;;;;;;;;;;24.80;99.90;;;;;;5052779;28;19912;-51
2023/09/19 06:25:43;;;;;;;;;;;24.80;99.90;;;;;;5053153;28;20279;-51
2023/09/19 06:28:12;;;;;;;;;;;24.80;99.90;;;;;;5034962;28;20007;-50
2023/09/19 06:30:40;;;;;;;;;;;24.80;99.90;;;;;;5034954;28;19991;-51
2023/09/19 06:33:06;;;;;;;;;;;24.80;99.90;;;;;;5052597;28;19911;-51
2023/09/19 06:35:32;;;;;;;;;;;24.80;99.90;;;;;;5052862;28;19916;-51
2023/09/19 06:37:58;;;;;;;;;;;24.80;99.90;;;;;;5052831;28;19958;-51
2023/09/19 06:40:24;;;;;;;;;;;24.80;99.90;;;;;;5052773;28;19909;-51
2023/09/19 06:42:50;;;;;;;;;;;24.80;99.90;;;;;;5052730;28;19905;-51
2023/09/19 06:45:19;;;;;;;;;;;24.80;99.90;;;;;;5052784;28;19905;-51
2023/09/19 06:47:51;;;;;;;;;;;24.80;99.90;;;;;;5051436;28;19905;-51
2023/09/19 06:50:18;;;;;;;;;;;24.80;99.90;;;;;;5052778;28;19905;-51
2023/09/19 06:52:45;;;;;;;;;;;24.80;99.90;;;;;;5053044;28;20283;-51
2023/09/19 06:55:13;;;;;;;;;;;24.80;99.90;;;;;;5052481;28;19913;-52
2023/09/19 06:57:40;;;;;;;;;;;24.80;99.90;;;;;;5052477;28;20394;-51
2023/09/19 07:00:15;;;;;;;;;;;24.80;99.90;;;;;;5052444;28;20000;-51
2023/09/19 07:02:41;;;;;;;;;;;24.90;99.90;;;;;;5052317;28;19921;-52
2023/09/19 07:05:07;;;;;;;;;;;24.90;99.90;;;;;;5052444;28;19999;-52
2023/09/19 07:07:34;;;;;;;;;;;25.00;99.90;;;;;;5034980;28;20353;-51
2023/09/19 07:10:06;;;;;;;;;;;25.00;99.90;;;;;;5050956;28;19904;-51
2023/09/19 07:12:33;;;;;;;;;;;25.00;99.90;;;;;;5051076;28;19904;-51
2023/09/19 07:14:59;;;;;;;;;;;25.00;99.90;;;;;;5050127;28;20200;-51
2023/09/19 07:17:25;;;;;;;;;;;25.10;99.90;;;;;;5051406;28;19908;-51
2023/09/19 07:19:50;;;;;;;;;;;25.10;99.90;;;;;;5051327;28;20308;-52
2023/09/19 07:22:16;;;;;;;;;;;25.20;99.90;;;;;;5051089;28;19944;-52
2023/09/19 07:24:42;;;;;;;;;;;25.20;99.90;;;;;;5051484;28;20003;-51
2023/09/19 07:27:08;;;;;;;;;;;25.30;99.90;;;;;;5052736;28;19912;-51
2023/09/19 07:29:34;;;;;;;;;;;25.30;99.90;;;;;;5050719;28;20315;-52
2023/09/19 07:32:00;;;;;;;;;;;25.40;99.90;;;;;;5050249;28;19944;-52
2023/09/19 07:34:25;;;;;;;;;;;25.40;99.90;;;;;;5053930;28;20374;-51
2023/09/19 07:36:51;;;;;;;;;;;25.50;99.90;;;;;;5054626;28;19958;-51
2023/09/19 07:39:17;;;;;;;;;;;25.60;99.90;;;;;;5054387;28;19904;-51
2023/09/19 07:41:42;;;;;;;;;;;25.60;99.90;;;;;;5054078;28;20454;-52
2023/09/19 07:44:10;;;;;;;;;;;25.70;99.90;;;;;;5054048;28;19905;-52
2023/09/19 07:46:35;;;;;;;;;;;25.70;99.90;;;;;;5055177;28;19905;-52
2023/09/19 07:49:01;;;;;;;;;;;25.80;99.90;;;;;;5038015;28;19912;-52
2023/09/19 07:51:27;;;;;;;;;;;25.80;99.90;;;;;;5055917;28;19959;-52
2023/09/19 07:53:52;;;;;;;;;;;25.90;99.90;;;;;;5055499;28;19912;-51
2023/09/19 07:56:20;;;;;;;;;;;25.90;99.90;;;;;;5055881;28;19912;-52
2023/09/19 07:58:46;;;;;;;;;;;26.00;99.90;;;;;;5055496;28;19905;-51
2023/09/19 08:01:13;;;;;;;;;;;26.00;99.90;;;;;;5055483;28;20382;-51
2023/09/19 08:03:40;;;;;;;;;;;26.00;99.90;;;;;;5055686;28;20377;-51
2023/09/19 08:06:06;;;;;;;;;;;26.10;99.90;;;;;;5055528;28;19920;-51
2023/09/19 08:08:33;;;;;;;;;;;26.10;99.90;;;;;;5055516;28;20380;-52
2023/09/19 08:10:59;;;;;;;;;;;26.10;99.90;;;;;;5055338;28;19911;-51
2023/09/19 08:13:25;;;;;;;;;;;26.20;99.90;;;;;;5055295;28;20278;-51
2023/09/19 08:15:53;;;;;;;;;;;26.20;99.90;;;;;;5055586;28;19912;-51
2023/09/19 08:18:18;;;;;;;;;;;26.30;99.90;;;;;;5055547;28;19931;-51
2023/09/19 08:20:49;;;;;;;;;;;26.20;99.90;;;;;;5055295;28;19904;-51
2023/09/19 08:23:14;;;;;;;;;;;26.30;99.90;;;;;;5055114;28;19909;-51
2023/09/19 08:25:40;;;;;;;;;;;26.30;99.90;;;;;;5055133;28;19905;-52
2023/09/19 08:28:08;;;;;;;;;;;26.30;99.90;;;;;;5055079;28;19905;-51
2023/09/19 08:30:34;;;;;;;;;;;26.30;99.90;;;;;;5054901;28;19912;-51
2023/09/19 08:33:00;;;;;;;;;;;26.30;99.90;;;;;;5054956;28;19963;-52
2023/09/19 08:35:29;;;;;;;;;;;26.40;99.90;;;;;;5054844;28;20309;-51
2023/09/19 08:37:55;;;;;;;;;;;26.40;99.90;;;;;;5054814;28;20453;-51
2023/09/19 08:40:21;;;;;;;;;;;26.40;99.90;;;;;;5054985;28;20038;-51
2023/09/19 08:42:50;;;;;;;;;;;26.40;99.90;;;;;;5054653;28;19987;-51
2023/09/19 08:45:16;;;;;;;;;;;26.50;99.90;;;;;;5053865;28;19912;-51
2023/09/19 08:48:02;;;;;;;;;;;26.50;99.90;;;;;;5054665;28;19905;-51
2023/09/19 08:50:29;;;;;;;;;;;26.50;99.90;;;;;;5036679;28;20328;-51
2023/09/19 08:53:00;;;;;;;;;;;26.50;99.90;;;;;;5054807;28;19908;-51
2023/09/19 08:55:30;;;;;;;;;;;26.60;99.90;;;;;;5054575;28;19920;-51
2023/09/19 08:57:59;;;;;;;;;;;26.60;99.90;;;;;;5054604;28;19911;-51
2023/09/19 09:00:27;;;;;;;;;;;26.70;99.90;;;;;;5054626;28;19904;-51
2023/09/19 09:02:54;;;;;;;;;;;26.70;99.90;;;;;;5054677;28;19971;-52
2023/09/19 09:05:22;;;;;;;;;;;26.70;99.90;;;;;;5054582;28;20333;-52
2023/09/19 09:07:51;;;;;;;;;;;26.80;99.90;;;;;;5054610;28;20267;-52
2023/09/19 09:10:18;;;;;;;;;;;26.80;99.90;;;;;;5054081;28;19905;-52
2023/09/19 09:12:43;;;;;;;;;;;26.90;99.90;;;;;;5054321;28;19911;-52
2023/09/19 09:15:11;;;;;;;;;;;26.90;99.90;;;;;;5054276;28;20374;-52
2023/09/19 09:17:37;;;;;;;;;;;26.90;99.90;;;;;;5054206;28;19916;-51
2023/09/19 09:20:05;;;;;;;;;;;26.90;99.90;;;;;;5036198;28;19905;-51
2023/09/19 09:22:31;;;;;;;;;;;26.90;99.90;;;;;;5036157;28;19950;-51
2023/09/19 09:25:04;;;;;;;;;;;27.00;99.90;;;;;;5054294;28;19905;-51
2023/09/19 09:27:31;;;;;;;;;;;27.00;99.90;;;;;;5053985;28;19905;-51
2023/09/19 09:29:57;;;;;;;;;;;27.10;99.90;;;;;;5053994;28;19951;-51
2023/09/19 09:32:26;;;;;;;;;;;27.10;99.90;;;;;;5054061;28;19949;-51
2023/09/19 09:34:53;;;;;;;;;;;27.10;99.90;;;;;;5054018;28;19913;-51
2023/09/19 09:37:22;;;;;;;;;;;27.10;99.90;;;;;;5053808;28;19905;-51
2023/09/19 09:39:56;;;;;;;;;;;27.20;99.90;;;;;;5053904;28;19909;-51
2023/09/19 09:42:35;;;;;;;;;;;27.20;99.90;;;;;;5053778;28;19912;-53
2023/09/19 09:45:14;;;;;;;;;;;27.20;99.90;;;;;;5035810;28;19928;-52
2023/09/19 09:47:49;;;;;;;;;;;27.30;99.90;;;;;;5053671;28;19905;-51
2023/09/19 09:50:29;;;;;;;;;;;27.30;99.90;;;;;;5053616;28;20000;-52
2023/09/19 09:53:02;;;;;;;;;;;27.30;99.90;;;;;;5053625;28;19950;-51
2023/09/19 09:55:28;;;;;;;;;;;27.40;99.90;;;;;;5053302;28;19913;-52
2023/09/19 09:58:13;;;;;;;;;;;27.40;99.90;;;;;;5052974;28;19908;-51
2023/09/19 10:00:55;;;;;;;;;;;27.50;99.90;;;;;;5053126;28;20322;-52
2023/09/19 10:03:22;;;;;;;;;;;27.50;99.90;;;;;;5053299;28;19917;-52
2023/09/19 10:05:55;;;;;;;;;;;27.50;99.90;;;;;;5053224;28;19908;-51
2023/09/19 10:08:21;;;;;;;;;;;27.60;99.90;;;;;;5053189;28;20038;-52
2023/09/19 10:13:22;;;;;;;;;;;27.60;99.90;;;;;;5053102;28;19905;-51
2023/09/19 10:15:52;;;;;;;;;;;27.70;99.90;;;;;;5053122;28;19912;-51
2023/09/19 10:18:21;;;;;;;;;;;27.70;99.90;;;;;;5053059;28;19912;-51
2023/09/19 10:20:48;;;;;;;;;;;27.70;99.90;;;;;;5053003;28;19905;-51
2023/09/19 10:23:22;;;;;;;;;;;27.80;99.90;;;;;;5035069;28;20058;-51
2023/09/19 10:25:48;;;;;;;;;;;27.90;99.90;;;;;;5052829;28;19912;-52
2023/09/19 10:28:16;;;;;;;;;;;27.90;99.90;;;;;;5034963;28;20003;-51
2023/09/19 10:30:46;;;;;;;;;;;27.90;99.90;;;;;;5052877;28;20309;-50
2023/09/19 10:33:17;;;;;;;;;;;27.90;99.90;;;;;;5052689;28;19904;-51
2023/09/19 10:35:43;;;;;;;;;;;27.90;99.90;;;;;;5052853;28;19971;-51
2023/09/19 10:38:10;;;;;;;;;;;28.00;99.90;;;;;;5052724;28;19911;-51
2023/09/19 10:40:40;;;;;;;;;;;28.00;99.90;;;;;;5052753;28;19951;-51
2023/09/19 10:43:06;;;;;;;;;;;28.10;99.90;;;;;;5034584;28;19904;-50
2023/09/19 10:45:33;;;;;;;;;;;28.10;99.90;;;;;;5052492;28;19920;-51
2023/09/19 10:48:00;;;;;;;;;;;28.20;99.90;;;;;;5052767;28;19904;-52
2023/09/19 10:50:31;;;;;;;;;;;28.20;99.90;;;;;;5052787;28;19904;-51
2023/09/19 10:53:04;;;;;;;;;;;28.30;99.90;;;;;;5034705;28;19905;-51
2023/09/19 10:55:31;;;;;;;;;;;28.30;99.90;;;;;;5052700;28;20007;-51
2023/09/19 10:58:13;;;;;;;;;;;28.30;99.90;;;;;;5052617;28;19911;-51
2023/09/19 11:00:55;;;;;;;;;;;28.40;99.90;;;;;;5052388;28;20286;-51
2023/09/19 11:03:23;;;;;;;;;;;28.40;99.90;;;;;;5052447;28;20291;-51
2023/09/19 11:06:01;;;;;;;;;;;28.50;99.90;;;;;;5052136;28;20351;-51
2023/09/19 11:08:26;;;;;;;;;;;28.40;99.90;;;;;;5052391;28;20251;-51
2023/09/19 11:10:52;;;;;;;;;;;28.50;99.90;;;;;;5052427;28;19999;-51
2023/09/19 11:13:30;;;;;;;;;;;28.50;99.90;;;;;;5052250;28;20270;-51
2023/09/19 11:15:58;;;;;;;;;;;28.50;99.90;;;;;;5052358;28;19913;-51
2023/09/19 11:18:43;;;;;;;;;;;28.50;99.90;;;;;;5052285;28;19912;-51
2023/09/19 11:21:33;;;;;;;;;;;28.50;99.90;;;;;;5052091;28;19944;-50
2023/09/19 11:24:24;;;;;;;;;;;28.50;99.90;;;;;;5042289;28;20314;-51
2023/09/19 11:26:51;;;;;;;;;;;28.60;99.90;;;;;;5052143;28;20398;-51
2023/09/19 11:29:31;;;;;;;;;;;28.60;99.90;;;;;;5052252;28;20000;-51
2023/09/19 11:31:59;;;;;;;;;;;28.60;99.90;;;;;;5052083;28;19912;-51
2023/09/19 11:34:37;;;;;;;;;;;28.60;99.90;;;;;;5052140;28;20023;-51
2023/09/19 11:37:04;;;;;;;;;;;28.70;99.90;;;;;;5052326;28;19912;-51
2023/09/19 11:39:30;;;;;;;;;;;28.70;99.90;;;;;;5052344;28;19904;-51
2023/09/19 11:42:00;;;;;;;;;;;28.70;99.90;;;;;;5051984;28;19904;-51
2023/09/19 11:44:26;;;;;;;;;;;28.70;99.90;;;;;;5052106;28;20358;-51
2023/09/19 11:46:53;;;;;;;;;;;28.80;99.90;;;;;;5052032;28;19905;-53
2023/09/19 11:49:23;;;;;;;;;;;28.70;99.90;;;;;;5052039;28;20381;-51
2023/09/19 11:51:52;;;;;;;;;;;28.60;99.90;;;;;;5052002;28;20079;-53
2023/09/19 11:54:21;;;;;;;;;;;28.60;99.90;;;;;;5051805;28;19916;-51
2023/09/19 11:56:50;;;;;;;;;;;28.50;99.90;;;;;;5052073;28;19905;-52
2023/09/19 11:59:29;;;;;;;;;;;28.40;99.90;;;;;;5051939;28;19905;-51
2023/09/19 12:01:59;;;;;;;;;;;28.40;99.90;;;;;;5051774;28;20282;-52
2023/09/19 12:04:37;;;;;;;;;;;28.30;99.90;;;;;;5051725;28;19915;-51
2023/09/19 12:07:16;;;;;;;;;;;28.20;99.90;;;;;;5051943;28;20409;-51
2023/09/19 12:09:44;;;;;;;;;;;28.10;99.90;;;;;;5051925;28;19948;-52
2023/09/19 12:12:12;;;;;;;;;;;28.10;99.90;;;;;;5051730;28;20225;-51
2023/09/19 12:14:39;;;;;;;;;;;28.00;99.90;;;;;;5051663;28;19912;-51
2023/09/19 12:17:05;;;;;;;;;;;27.90;99.90;;;;;;5053067;28;20364;-51
2023/09/19 12:19:30;;;;;;;;;;;27.90;99.90;;;;;;5072157;28;20011;-51
2023/09/19 12:22:04;;;;;;;;;;;27.80;99.90;;;;;;5075197;28;19909;-51
2023/09/19 12:24:30;;;;;;;;;;;27.80;99.90;;;;;;5075269;28;19927;-51
2023/09/19 12:27:05;;;;;;;;;;;27.80;99.90;;;;;;5075207;28;20251;-51
2023/09/19 12:29:31;;;;;;;;;;;27.80;99.90;;;;;;5056783;28;20019;-50
2023/09/19 12:31:57;;;;;;;;;;;27.80;99.90;;;;;;5074894;28;20369;-50
2023/09/19 12:34:27;;;;;;;;;;;27.80;99.90;;;;;;5074883;28;19945;-50
2023/09/19 12:37:11;;;;;;;;;;;27.80;99.90;;;;;;5074745;28;20270;-51
2023/09/19 12:39:48;;;;;;;;;;;27.80;99.90;;;;;;5072923;28;19908;-52
2023/09/19 12:42:14;;;;;;;;;;;27.90;99.90;;;;;;5072974;28;19912;-51
2023/09/19 12:44:42;;;;;;;;;;;27.90;99.90;;;;;;5074381;28;19999;-51
2023/09/19 12:47:19;;;;;;;;;;;27.90;99.90;;;;;;5073352;28;19913;-50
2023/09/19 12:50:06;;;;;;;;;;;27.90;99.90;;;;;;5073749;28;19909;-50
2023/09/19 12:52:38;;;;;;;;;;;28.00;99.90;;;;;;5072594;28;19965;-50
2023/09/19 12:55:06;;;;;;;;;;;28.00;99.90;;;;;;5071676;28;19919;-51
2023/09/19 12:57:34;;;;;;;;;;;28.00;99.90;;;;;;5074306;28;19905;-50
2023/09/19 13:00:01;;;;;;;;;;;28.10;99.90;;;;;;5073957;28;19911;-50
2023/09/19 13:02:28;;;;;;;;;;;28.10;99.90;;;;;;5073828;28;19916;-51
2023/09/19 13:04:56;;;;;;;;;;;28.20;99.90;;;;;;5074011;28;19912;-51
2023/09/19 13:07:43;;;;;;;;;;;28.20;99.90;;;;;;5073730;28;19908;-50
2023/09/19 13:10:15;;;;;;;;;;;28.20;99.90;;;;;;5071806;28;20342;-50
2023/09/19 13:12:44;;;;;;;;;;;28.20;99.90;;;;;;5073530;28;20278;-51
2023/09/19 13:15:20;;;;;;;;;;;28.20;99.90;;;;;;5073450;28;20270;-51
2023/09/19 13:17:46;;;;;;;;;;;28.20;99.90;;;;;;5071170;28;19957;-51
2023/09/19 13:20:39;;;;;;;;;;;28.20;99.90;;;;;;5073347;28;20327;-51
2023/09/19 13:23:10;;;;;;;;;;;28.20;99.90;;;;;;5074103;28;20282;-51
2023/09/19 13:25:35;;;;;;;;;;;28.20;99.90;;;;;;5074190;28;19911;-51
2023/09/19 13:28:04;;;;;;;;;;;28.20;99.90;;;;;;5074065;28;20270;-52
2023/09/19 13:30:31;;;;;;;;;;;28.20;99.90;;;;;;5073491;28;20350;-51
2023/09/19 13:33:07;;;;;;;;;;;28.20;99.90;;;;;;5073802;28;19904;-52
2023/09/19 13:35:32;;;;;;;;;;;28.10;99.90;;;;;;5073587;28;20366;-51
2023/09/19 13:37:58;;;;;;;;;;;28.10;99.90;;;;;;5073653;28;19909;-52
2023/09/19 13:40:34;;;;;;;;;;;28.00;99.90;;;;;;5073742;28;19911;-52
2023/09/19 13:43:00;;;;;;;;;;;28.00;99.90;;;;;;5073733;28;19908;-52
2023/09/19 13:45:30;;;;;;;;;;;28.00;99.90;;;;;;5073601;28;20263;-51
2023/09/19 13:47:56;;;;;;;;;;;27.90;99.90;;;;;;5073530;28;19911;-53
2023/09/19 13:50:24;;;;;;;;;;;28.00;99.90;;;;;;5071137;28;19905;-52
2023/09/19 13:52:51;;;;;;;;;;;27.90;99.90;;;;;;5073381;28;20342;-53
2023/09/19 13:55:20;;;;;;;;;;;27.90;99.90;;;;;;5073700;28;19912;-52
2023/09/19 13:57:46;;;;;;;;;;;27.80;99.90;;;;;;5073343;28;19943;-52
2023/09/19 14:00:15;;;;;;;;;;;27.80;99.90;;;;;;5055388;28;19905;-53
2023/09/19 14:02:44;;;;;;;;;;;27.80;99.90;;;;;;5055055;28;19944;-53
2023/09/19 14:05:12;;;;;;;;;;;27.80;99.90;;;;;;5073307;28;19904;-52
2023/09/19 14:07:38;;;;;;;;;;;27.80;99.90;;;;;;5073311;28;19904;-54
2023/09/19 14:10:07;;;;;;;;;;;27.80;99.90;;;;;;5073133;28;20377;-52
2023/09/19 14:12:34;;;;;;;;;;;27.80;99.90;;;;;;5072877;28;20358;-52
2023/09/19 14:15:00;;;;;;;;;;;27.80;99.90;;;;;;5072693;28;19958;-52
2023/09/19 14:17:26;;;;;;;;;;;27.80;99.90;;;;;;5038313;28;19909;-50
2023/09/19 14:19:52;;;;;;;;;;;27.80;99.90;;;;;;5072753;28;20394;-51
2023/09/19 14:22:18;;;;;;;;;;;27.70;99.90;;;;;;5072586;28;20000;-51
2023/09/19 14:24:43;;;;;;;;;;;27.60;99.90;;;;;;5072618;28;19912;-50
2023/09/19 14:27:10;;;;;;;;;;;27.60;99.90;;;;;;5055025;28;19940;-51
2023/09/19 14:29:36;;;;;;;;;;;27.50;99.90;;;;;;5054289;28;19915;-53